Jamul, California
Current Conditions -  °F | °C
As of 1:53 AM on Friday 19 Dec 2014 (Local Time) from KSDM Reporting Station
Clear Clear  
Wind Chill: 45°   Ceiling: Unl
Heat Index: 48°   Visibility: 9mi
Dew Point: 46°   Wind: 7mph
Humidity: 93%   Direction: 120°ESE
Pressure: 30.2"   Gusts: NA
Location:  32.72°N, 116.88°W
Report Text: KSDM 190953Z AUTO 12006KT 9SM CLR 09/08 A3020 RMK AO2 SLP225 T00890078 $
Loading
Personal Weather Stations






























Interactive Weather Map New forecast layout! Learn more

10-Day Weather Forecast

Advertisements
Track Severe Weather on mobile